Time;durP1;ratioP1;P1;durP2;ratioP2;P2;SDS_P1;SDS_P2;PMS_P1;PMS_P2;Temp;Humidity;BMP_temperature;BMP_pressure;BME280_temperature;BME280_humidity;BME280_pressure;Samples;Min_cycle;Max_cycle;Signal;HPM_P1;HPM_P2
2022/06/16 00:00:46;;;;;;;4.30;2.70;;;;;;;-143.84;82.01;45062.41;4948404;29;20877;-73
2022/06/16 00:03:13;;;;;;;6.80;2.33;;;;;;;-143.84;81.09;45085.25;4948810;28;20474;-73
2022/06/16 00:05:43;;;;;;;4.00;2.30;;;;;;;-143.84;80.81;45090.97;4948487;29;20524;-73
2022/06/16 00:08:16;;;;;;;4.50;2.33;;;;;;;-143.84;80.82;45098.56;4948307;29;20446;-75
2022/06/16 00:11:16;;;;;;;6.90;2.97;;;;;;;-143.84;81.03;45089.06;4948325;29;20517;-75
2022/06/16 00:13:32;;;;;;;14.00;2.87;;;;;;;-143.84;81.67;45087.16;4948209;28;20453;-75
2022/06/16 00:15:59;;;;;;;3.50;2.23;;;;;;;-143.84;81.99;45100.47;4948540;28;20447;-75
2022/06/16 00:18:27;;;;;;;6.37;2.50;;;;;;;-143.84;82.20;45085.25;4948315;29;20446;-75
2022/06/16 00:20:54;;;;;;;4.90;2.00;;;;;;;-143.84;82.00;45098.56;4948567;28;21051;-75
2022/06/16 00:23:23;;;;;;;5.27;2.60;;;;;;;-143.84;81.76;45047.16;4948315;29;20458;-75
2022/06/16 00:25:50;;;;;;;10.00;2.30;;;;;;;-143.84;81.82;45089.06;4948242;29;20461;-75
2022/06/16 00:28:17;;;;;;;8.73;3.07;;;;;;;-143.84;81.70;45071.91;4948229;29;20446;-76
2022/06/16 00:30:45;;;;;;;6.70;2.40;;;;;;;-143.84;81.58;45081.44;4948280;29;20443;-75
2022/06/16 00:33:12;;;;;;;11.80;2.33;;;;;;;-143.84;81.46;45102.38;4948069;28;20490;-75
2022/06/16 00:35:39;;;;;;;7.13;2.50;;;;;;;-143.84;81.25;45090.97;4948263;29;20492;-75
2022/06/16 00:38:07;;;;;;;6.90;3.07;;;;;;;-143.84;81.43;45068.13;4948057;29;20450;-75
2022/06/16 00:40:35;;;;;;;6.30;2.40;;;;;;;-143.84;81.13;45068.13;4948214;28;20458;-75
2022/06/16 00:43:02;;;;;;;10.83;3.13;;;;;;;-143.84;80.61;45113.81;4948019;29;20442;-75
2022/06/16 00:46:01;;;;;;;3.00;2.30;;;;;;;-143.84;79.86;45079.53;4947629;29;20454;-76
2022/06/16 00:48:32;;;;;;;13.40;2.20;;;;;;;-143.84;79.21;45070.00;4986607;28;20472;-75
2022/06/16 00:51:05;;;;;;;11.60;2.73;;;;;;;-143.84;79.78;45110.00;4959068;28;20433;-75
2022/06/16 00:53:33;;;;;;;5.03;2.40;;;;;;;-143.84;79.94;45083.34;4950592;28;21046;-75
2022/06/16 00:56:02;;;;;;;2.77;2.67;;;;;;;-143.84;80.13;45094.78;4950565;29;20978;-75
2022/06/16 00:58:32;;;;;;;5.83;2.53;;;;;;;-143.84;79.96;45062.41;4950928;28;20462;-75
2022/06/16 01:00:59;;;;;;;5.90;2.83;;;;;;;-143.84;79.93;45102.38;4951062;28;20461;-75
2022/06/16 01:06:20;;;;;;;6.53;2.47;;;;;;;-143.84;80.13;45079.53;4951412;29;20430;-75
2022/06/16 01:08:49;;;;;;;3.40;2.23;;;;;;;-143.84;80.29;45079.53;4951126;29;20469;-75
2022/06/16 01:14:22;;;;;;;7.53;2.23;;;;;;;-143.84;80.76;45081.44;4950751;28;20471;-75
2022/06/16 01:16:56;;;;;;;2.57;2.40;;;;;;;-143.84;80.86;45064.31;4950703;29;20507;-75
2022/06/16 01:19:50;;;;;;;10.17;2.67;;;;;;;-143.84;80.96;45071.91;4951219;28;20454;-75
2022/06/16 01:22:28;;;;;;;3.60;2.30;;;;;;;-143.84;81.08;45085.25;4951126;29;20446;-75
2022/06/16 01:25:07;;;;;;;6.03;2.17;;;;;;;-143.84;81.07;45064.31;4951039;29;20434;-75
2022/06/16 01:28:06;;;;;;;3.37;2.77;;;;;;;-143.84;81.12;45087.16;4951005;29;20546;-75
2022/06/16 01:30:40;;;;;;;3.77;2.70;;;;;;;-143.84;80.63;45075.72;4950951;28;20490;-75
2022/06/16 01:33:15;;;;;;;3.67;2.40;;;;;;;-143.84;80.39;45087.16;4951112;29;20519;-75
2022/06/16 01:35:51;;;;;;;6.20;2.57;;;;;;;-143.84;80.20;45089.06;4950784;29;20502;-76
2022/06/16 01:38:27;;;;;;;5.70;2.50;;;;;;;-143.84;79.88;45081.44;4950667;28;20788;-75
2022/06/16 01:41:05;;;;;;;4.70;2.10;;;;;;;-143.84;79.85;45090.97;4950796;28;20496;-75
2022/06/16 01:43:36;;;;;;;2.87;2.20;;;;;;;-143.84;79.78;45098.56;4950805;28;20453;-75
2022/06/16 01:46:11;;;;;;;2.77;2.43;;;;;;;-143.84;79.99;45081.44;4950531;28;20951;-75
2022/06/16 01:48:42;;;;;;;10.30;2.87;;;;;;;-143.84;79.65;45087.16;4950440;28;20449;-75
2022/06/16 01:51:19;;;;;;;3.10;2.23;;;;;;;-143.84;79.19;45087.16;4950656;29;20454;-74
2022/06/16 01:53:51;;;;;;;3.83;2.07;;;;;;;-143.84;79.47;45073.81;4950284;28;20888;-73
2022/06/16 01:56:23;;;;;;;17.73;2.77;;;;;;;-143.84;79.52;45085.25;4950206;28;20484;-73
2022/06/16 01:58:54;;;;;;;9.73;2.17;;;;;;;-143.84;79.08;45087.16;4950289;28;20450;-73
2022/06/16 02:01:27;;;;;;;5.00;2.33;;;;;;;-143.84;79.11;45098.56;4949050;29;20504;-73
2022/06/16 02:03:58;;;;;;;7.53;2.30;;;;;;;-143.84;78.60;45092.88;4949784;28;21072;-73
2022/06/16 02:06:30;;;;;;;2.70;1.97;;;;;;;-143.84;78.61;45085.25;4949720;28;20571;-73
2022/06/16 02:09:02;;;;;;;10.13;2.20;;;;;;;-143.84;78.25;45075.72;4949294;29;20515;-73
2022/06/16 02:11:32;;;;;;;6.53;2.03;;;;;;;-143.84;77.47;45090.97;4949641;29;20456;-73
2022/06/16 02:14:06;;;;;;;6.97;2.83;;;;;;;-143.84;76.77;45068.13;4949215;29;20463;-73
2022/06/16 02:16:38;;;;;;;3.50;1.90;;;;;;;-143.84;76.15;45090.97;4950253;29;20533;-74
2022/06/16 02:19:09;;;;;;;4.70;1.70;;;;;;;-143.84;75.48;45092.88;4950220;28;20496;-74
2022/06/16 02:21:39;;;;;;;4.87;2.50;;;;;;;-143.84;74.41;45094.78;4950031;29;20475;-74
2022/06/16 02:24:09;;;;;;;5.43;2.57;;;;;;;-143.84;74.06;45090.97;4950003;29;20441;-73
2022/06/16 02:26:38;;;;;;;6.97;2.17;;;;;;;-143.84;73.18;45073.81;4949988;29;20580;-74
2022/06/16 02:29:22;;;;;;;5.50;1.83;;;;;;;-143.84;72.33;45113.81;4950201;28;20467;-73
2022/06/16 02:32:00;;;;;;;3.20;1.57;;;;;;;-143.84;70.83;45144.28;4950343;29;21071;-73
2022/06/16 02:34:38;;;;;;;2.50;2.30;;;;;;;-143.84;70.86;45100.47;4949776;29;20454;-73
2022/06/16 02:37:28;;;;;;;3.87;2.03;;;;;;;-143.84;70.04;45102.38;4949851;29;20859;-73
2022/06/16 02:40:21;;;;;;;6.40;2.23;;;;;;;-143.84;68.60;45110.00;4949946;28;20466;-73
2022/06/16 02:42:55;;;;;;;4.17;1.50;;;;;;;-143.84;68.38;45096.66;4949776;29;20441;-73
2022/06/16 02:45:29;;;;;;;3.10;2.03;;;;;;;-143.84;68.74;45064.31;4950062;29;20449;-73
2022/06/16 02:48:07;;;;;;;4.47;1.70;;;;;;;-143.84;68.04;45096.66;4950962;28;20449;-75
2022/06/16 02:50:44;;;;;;;1.87;1.57;;;;;;;-143.84;68.37;45049.06;4949362;29;20490;-74
2022/06/16 02:53:23;;;;;;;3.63;1.90;;;;;;;-143.84;66.71;45108.09;4949055;28;20500;-73
2022/06/16 02:55:54;;;;;;;2.50;1.57;;;;;;;-143.84;66.62;45068.13;4948987;29;20920;-73
2022/06/16 02:58:22;;;;;;;8.83;1.90;;;;;;;-143.84;66.51;45106.19;4949719;29;20445;-73
2022/06/16 03:00:54;;;;;;;2.90;1.90;;;;;;;-143.84;66.53;45071.91;4949164;28;20483;-72
2022/06/16 03:03:26;;;;;;;2.63;1.80;;;;;;;-143.84;65.76;45096.66;4948688;28;20464;-75
2022/06/16 03:05:55;;;;;;;3.20;1.37;;;;;;;-143.84;65.70;45098.56;4949255;28;20515;-75
2022/06/16 03:08:23;;;;;;;2.20;2.00;;;;;;;-143.84;65.70;45094.78;4949599;28;20499;-74
2022/06/16 03:10:54;;;;;;;4.90;1.87;;;;;;;-143.84;65.45;45092.88;4949402;28;20489;-74
2022/06/16 03:13:24;;;;;;;2.60;1.70;;;;;;;-143.84;64.88;45077.63;4948391;28;20469;-74
2022/06/16 03:15:53;;;;;;;5.97;2.17;;;;;;;-143.84;64.52;45077.63;4949129;28;20532;-77
2022/06/16 03:18:21;;;;;;;2.40;1.77;;;;;;;-143.84;63.79;45094.78;4949400;29;20458;-75
2022/06/16 03:20:51;;;;;;;6.80;1.90;;;;;;;-143.84;63.83;45089.06;4949139;28;20442;-74
2022/06/16 03:23:18;;;;;;;4.33;1.77;;;;;;;-143.84;63.38;45068.13;4948553;28;20447;-74
2022/06/16 03:25:46;;;;;;;4.47;2.10;;;;;;;-143.84;63.22;45079.53;4948608;28;20442;-74
2022/06/16 03:28:14;;;;;;;1.70;1.50;;;;;;;-143.84;61.99;45070.00;4948828;28;20453;-74
2022/06/16 03:30:42;;;;;;;7.80;1.63;;;;;;;-143.84;62.11;45079.53;4949128;28;20482;-77
2022/06/16 03:33:11;;;;;;;2.83;1.70;;;;;;;-143.84;63.77;45064.31;4948546;28;20512;-73
2022/06/16 03:35:40;;;;;;;3.37;1.87;;;;;;;-143.84;63.00;45073.81;4948512;28;20450;-75
2022/06/16 03:38:10;;;;;;;1.73;1.50;;;;;;;-143.84;62.38;45052.88;4948130;29;20446;-74
2022/06/16 03:40:38;;;;;;;3.07;1.60;;;;;;;-143.84;59.54;45089.06;4949021;29;21027;-72
2022/06/16 03:43:06;;;;;;;9.23;1.63;;;;;;;-143.84;57.88;45054.78;4948717;28;20454;-71
2022/06/16 03:45:33;;;;;;;2.20;1.50;;;;;;;-143.84;55.41;45041.44;4948717;29;20478;-72
2022/06/16 03:48:00;;;;;;;5.67;1.70;;;;;;;-143.84;52.76;45037.66;4948675;29;20442;-72
2022/06/16 03:50:28;;;;;;;1.70;1.60;;;;;;;-143.84;50.28;45031.94;4948591;29;21018;-72
2022/06/16 03:52:55;;;;;;;4.30;1.80;;;;;;;-143.84;48.76;45045.25;4948059;28;20486;-72
2022/06/16 03:55:24;;;;;;;2.47;1.30;;;;;;;-143.84;46.78;45033.84;4950509;28;20457;-72
2022/06/16 03:57:51;;;;;;;9.70;2.10;;;;;;;-143.84;45.55;45016.69;4950661;28;20461;-72
2022/06/16 04:00:20;;;;;;;4.20;1.80;;;;;;;-143.84;43.92;45007.19;4948578;28;20481;-72
2022/06/16 04:02:49;;;;;;;1.50;1.40;;;;;;;-143.84;42.54;44997.66;4948677;29;20443;-73
2022/06/16 04:05:15;;;;;;;1.73;1.60;;;;;;;-143.84;41.65;45024.31;4948493;29;20453;-73
2022/06/16 04:07:42;;;;;;;6.80;1.60;;;;;;;-143.84;40.43;44984.31;4948493;28;20462;-73
2022/06/16 04:10:12;;;;;;;3.37;1.20;;;;;;;-143.84;40.83;44980.53;4931116;29;20990;-72
2022/06/16 04:12:41;;;;;;;10.77;1.20;;;;;;;-143.84;39.54;45010.97;4948614;29;20462;-72
2022/06/16 04:15:09;;;;;;;3.10;1.80;;;;;;;-143.84;38.87;45001.47;4948344;28;20458;-72
2022/06/16 04:17:36;;;;;;;4.17;1.70;;;;;;;-143.84;39.41;44984.31;4948329;28;20446;-72
2022/06/16 04:20:15;;;;;;;2.60;1.17;;;;;;;-143.84;38.61;44976.72;4948469;28;20457;-72
2022/06/16 04:22:43;;;;;;;1.17;1.07;;;;;;;-143.84;38.14;44969.09;4948390;28;20450;-72
2022/06/16 04:25:13;;;;;;;4.13;1.47;;;;;;;-143.84;37.38;44965.28;4948655;29;20504;-72
2022/06/16 04:27:43;;;;;;;2.17;1.20;;;;;;;-143.84;37.04;44999.56;4948071;29;20972;-72
2022/06/16 04:30:11;;;;;;;3.33;1.17;;;;;;;-143.84;36.80;44972.91;4948302;29;20486;-72
2022/06/16 04:32:38;;;;;;;7.00;1.43;;;;;;;-143.84;36.76;44969.09;4948229;28;20435;-72
2022/06/16 04:35:06;;;;;;;12.13;1.70;;;;;;;-143.84;37.42;44961.47;4947976;28;20956;-72
2022/06/16 04:37:34;;;;;;;3.87;1.50;;;;;;;-143.84;35.96;44984.31;4947834;28;20454;-72
2022/06/16 04:40:01;;;;;;;1.93;1.17;;;;;;;-143.84;36.07;44959.56;4947620;28;20442;-72
2022/06/16 04:42:28;;;;;;;4.00;1.17;;;;;;;-143.84;35.99;44963.38;4947833;28;20450;-73
2022/06/16 04:44:57;;;;;;;7.13;2.00;;;;;;;-143.84;37.67;44967.19;4947986;28;20460;-72
2022/06/16 04:47:25;;;;;;;11.27;1.50;;;;;;;-143.84;37.67;44929.09;4948051;28;20446;-73
2022/06/16 04:49:52;;;;;;;5.10;1.47;;;;;;;-143.84;36.99;44948.16;4947673;29;21004;-73
2022/06/16 04:52:20;;;;;;;4.90;1.40;;;;;;;-143.84;31.66;44948.16;4947847;29;20490;-73
2022/06/16 04:54:48;;;;;;;2.60;1.00;;;;;;;-143.84;29.08;44932.91;4978701;28;20596;-73
2022/06/16 04:57:15;;;;;;;1.73;1.00;;;;;;;-143.84;26.43;44961.47;5048370;28;20886;-73
2022/06/16 04:59:43;;;;;;;8.70;1.80;;;;;;;-143.84;31.69;44940.53;5048377;28;20452;-73
2022/06/16 05:02:12;;;;;;;1.20;1.00;;;;;;;-143.84;30.78;44932.91;5023254;28;20527;-73
2022/06/16 05:04:41;;;;;;;3.07;1.37;;;;;;;-143.84;31.22;44931.00;4957891;28;21017;-73
2022/06/16 05:07:09;;;;;;;4.13;1.23;;;;;;;-143.84;29.78;44898.66;4947485;28;21209;-73
2022/06/16 05:09:36;;;;;;;1.57;1.23;;;;;;;-143.84;30.46;44923.41;4947093;28;20442;-73
2022/06/16 05:12:03;;;;;;;3.20;1.33;;;;;;;-143.84;32.04;44917.69;4947075;29;20579;-73
2022/06/16 05:14:31;;;;;;;1.17;1.07;;;;;;;-143.84;30.65;44925.31;4946967;28;20964;-73
2022/06/16 05:16:58;;;;;;;2.00;1.00;;;;;;;-143.84;29.39;44913.88;4947510;29;20501;-73
2022/06/16 05:19:30;;;;;;;1.50;1.00;;;;;;;-143.84;26.88;44913.88;4947563;29;20454;-73
2022/06/16 05:21:58;;;;;;;1.63;0.90;;;;;;;-143.84;28.13;44934.81;4947055;28;20970;-73
2022/06/16 05:24:25;;;;;;;3.80;1.30;;;;;;;-143.84;27.57;44917.69;4947038;29;20919;-72
2022/06/16 05:26:52;;;;;;;1.20;0.90;;;;;;;-143.84;25.98;44908.16;4947011;29;20496;-73
2022/06/16 05:29:20;;;;;;;2.80;0.80;;;;;;;-143.84;26.71;44911.97;4947180;29;20515;-73
2022/06/16 05:31:47;;;;;;;1.80;1.00;;;;;;;-143.84;27.79;44917.69;4947472;28;21146;-73
2022/06/16 05:34:15;;;;;;;1.97;0.97;;;;;;;-143.84;28.55;44917.69;4947378;28;20500;-72
2022/06/16 05:36:45;;;;;;;1.60;1.10;;;;;;;-143.84;27.13;44911.97;5039936;28;20457;-72
2022/06/16 05:39:13;;;;;;;3.10;1.00;;;;;;;-143.84;26.57;44892.94;4990974;28;20446;-73
2022/06/16 05:41:41;;;;;;;2.43;1.13;;;;;;;-143.84;26.58;44889.13;4949620;29;20446;-73
2022/06/16 05:44:09;;;;;;;1.63;1.00;;;;;;;-143.84;26.88;44919.59;4950230;29;20450;-74
2022/06/16 05:46:36;;;;;;;1.20;1.00;;;;;;;-143.84;26.22;44900.53;4949797;28;20970;-75
2022/06/16 05:49:03;;;;;;;1.10;0.87;;;;;;;-143.84;26.14;44902.44;4949954;28;20442;-73
2022/06/16 05:51:31;;;;;;;3.30;1.00;;;;;;;-143.84;27.01;44898.66;4949761;28;20485;-73
2022/06/16 05:54:00;;;;;;;1.30;1.00;;;;;;;-143.84;27.04;44881.50;4949869;28;20501;-73
2022/06/16 05:56:27;;;;;;;1.43;0.90;;;;;;;-143.84;25.91;44904.34;4950482;28;20461;-74
2022/06/16 05:58:54;;;;;;;2.77;0.90;;;;;;;-143.84;26.98;44904.34;4950262;29;20944;-73
2022/06/16 06:01:21;;;;;;;6.50;1.20;;;;;;;-143.84;26.74;44910.06;4950386;29;20442;-74
2022/06/16 06:03:48;;;;;;;4.20;1.17;;;;;;;-143.84;27.64;44868.19;4949725;28;20446;-73
2022/06/16 06:06:15;;;;;;;5.40;1.30;;;;;;;-143.84;27.62;44921.50;4949541;29;20885;-73
2022/06/16 06:17:04;;;;;;;1.93;1.10;;;;;;;-143.84;27.60;44892.94;4949527;29;20517;-73
2022/06/16 06:19:32;;;;;;;5.37;1.30;;;;;;;-143.84;29.42;44889.13;4949469;28;21033;-74
2022/06/16 06:22:06;;;;;;;7.07;2.07;;;;;;;-143.84;27.74;44871.97;4949525;29;20455;-74
2022/06/16 06:24:36;;;;;;;3.03;1.70;;;;;;;-143.84;27.51;44891.03;4950096;28;20454;-78
2022/06/16 06:27:08;;;;;;;4.00;1.97;;;;;;;-143.84;28.34;44873.88;4949818;28;20450;-74
2022/06/16 06:29:35;;;;;;;7.53;1.30;;;;;;;-143.84;26.66;44885.31;4949373;29;20462;-78
2022/06/16 06:32:02;;;;;;;6.30;1.87;;;;;;;-143.84;26.34;44891.03;4949785;29;20489;-78
2022/06/16 06:34:30;;;;;;;4.00;1.77;;;;;;;-143.84;26.21;44898.66;4949984;29;20448;-78
2022/06/16 06:36:57;;;;;;;13.20;3.03;;;;;;;-143.84;27.33;44877.69;4950012;28;20462;-78
2022/06/16 06:39:24;;;;;;;5.80;2.50;;;;;;;-143.84;27.86;44877.69;4950109;28;20833;-77
2022/06/16 06:41:51;;;;;;;7.97;1.97;;;;;;;-143.84;27.38;44866.28;4949735;29;20952;-77
2022/06/16 06:44:20;;;;;;;3.70;1.63;;;;;;;-143.84;26.58;44896.75;4949866;29;20824;-78
2022/06/16 06:46:47;;;;;;;7.53;1.93;;;;;;;-143.84;25.72;44868.19;4948556;28;20604;-78
2022/06/16 06:49:14;;;;;;;8.23;2.57;;;;;;;-143.84;27.27;44883.41;4949691;29;20442;-77
2022/06/16 06:51:42;;;;;;;6.43;2.20;;;;;;;-143.84;28.28;44873.88;4949375;28;20485;-77
2022/06/16 06:54:09;;;;;;;13.47;2.40;;;;;;;-143.84;27.79;44877.69;4949364;28;20481;-78
2022/06/16 06:56:36;;;;;;;9.27;2.20;;;;;;;-143.84;27.79;44858.66;4949573;29;20446;-78
2022/06/16 06:59:06;;;;;;;10.60;1.97;;;;;;;-143.84;26.43;44879.59;4949464;28;20495;-78
2022/06/16 07:01:35;;;;;;;4.57;2.23;;;;;;;-143.84;26.99;44871.97;4949716;28;20977;-77
2022/06/16 07:04:03;;;;;;;5.57;2.20;;;;;;;-143.84;26.33;44871.97;4949605;29;20450;-77
2022/06/16 07:06:30;;;;;;;5.30;2.80;;;;;;;-143.84;27.09;44866.28;4949369;29;21097;-78
2022/06/16 07:08:58;;;;;;;5.27;2.70;;;;;;;-143.84;29.38;44860.56;4949496;29;20533;-78
2022/06/16 07:11:25;;;;;;;6.10;2.27;;;;;;;-143.84;27.53;44862.47;4949273;29;20552;-78
2022/06/16 07:13:52;;;;;;;10.93;2.20;;;;;;;-143.84;27.82;44879.59;4949589;28;20446;-77
2022/06/16 07:16:20;;;;;;;6.83;2.10;;;;;;;-143.84;27.55;44906.25;4949642;28;20435;-78
2022/06/16 07:18:49;;;;;;;2.07;1.50;;;;;;;-143.84;26.13;44862.47;4949083;29;20446;-78
2022/06/16 07:21:17;;;;;;;2.80;1.47;;;;;;;-143.84;26.68;44868.19;4949699;29;20940;-78
2022/06/16 07:23:44;;;;;;;7.70;1.80;;;;;;;-143.84;27.88;44864.38;4948841;28;20442;-78
2022/06/16 07:26:12;;;;;;;3.23;1.70;;;;;;;-143.84;26.37;44868.19;4948332;29;20450;-78
2022/06/16 07:28:39;;;;;;;1.70;1.50;;;;;;;-143.84;27.02;44883.41;4948761;28;20473;-78
2022/06/16 07:31:06;;;;;;;6.10;1.50;;;;;;;-143.84;25.63;44868.19;4949065;29;20490;-78
2022/06/16 07:33:34;;;;;;;6.87;1.40;;;;;;;-143.84;26.10;44875.78;4949430;28;20443;-77
2022/06/16 07:36:03;;;;;;;2.90;1.93;;;;;;;-143.84;26.79;44885.31;4947979;28;20450;-78
2022/06/16 07:38:30;;;;;;;2.07;1.53;;;;;;;-143.84;27.25;44896.75;4948843;29;20441;-78
2022/06/16 07:43:38;;;;;;;3.40;1.83;;;;;;;-143.84;26.93;44870.09;4948089;28;20447;-78
2022/06/16 07:46:06;;;;;;;4.13;2.00;;;;;;;-143.84;27.31;44870.09;4948377;29;20457;-79
2022/06/16 07:48:33;;;;;;;5.47;2.00;;;;;;;-143.84;26.43;44889.13;4949201;29;20434;-78
2022/06/16 07:51:00;;;;;;;3.20;1.40;;;;;;;-143.84;27.00;44898.66;4948990;28;20482;-78
2022/06/16 07:53:29;;;;;;;4.00;1.37;;;;;;;-143.84;27.08;44885.31;4948703;29;20589;-79
2022/06/16 07:55:56;;;;;;;5.90;1.60;;;;;;;-143.84;26.90;44898.66;4949410;28;20450;-80
2022/06/16 07:58:29;;;;;;;2.23;1.20;;;;;;;-143.84;25.70;44887.22;4948374;29;20449;-78
2022/06/16 08:00:56;;;;;;;9.00;1.50;;;;;;;-143.84;26.85;44883.41;4947929;28;20446;-78
2022/06/16 08:03:27;;;;;;;10.03;1.60;;;;;;;-143.84;26.65;44910.06;4948796;29;20504;-77
2022/06/16 08:05:55;;;;;;;3.77;1.40;;;;;;;-143.84;26.75;44919.59;4948448;29;20455;-77
2022/06/16 08:08:23;;;;;;;6.83;1.60;;;;;;;-143.84;26.66;44864.38;4948913;28;20431;-77
2022/06/16 08:10:53;;;;;;;2.80;1.27;;;;;;;-143.84;26.31;44889.13;4948029;29;20956;-77
2022/06/16 08:13:20;;;;;;;2.63;1.30;;;;;;;-143.84;27.06;44911.97;4948486;28;20446;-77
2022/06/16 08:15:49;;;;;;;4.00;1.40;;;;;;;-143.84;27.58;44934.81;4948086;28;20469;-77
2022/06/16 08:18:18;;;;;;;2.27;1.57;;;;;;;-143.84;28.39;44898.66;4946996;29;20844;-77
2022/06/16 08:20:46;;;;;;;4.87;1.60;;;;;;;-143.84;27.38;44889.13;4948568;29;20481;-77
2022/06/16 08:23:14;;;;;;;1.57;1.47;;;;;;;-143.84;27.42;44915.78;4948294;29;20438;-77
2022/06/16 08:25:43;;;;;;;4.10;1.47;;;;;;;-143.84;28.61;44900.53;4948218;28;20449;-77
2022/06/16 08:28:14;;;;;;;6.13;1.50;;;;;;;-143.84;29.56;44911.97;4948486;29;20538;-76
2022/06/16 08:30:44;;;;;;;1.67;1.40;;;;;;;-143.84;28.02;44898.66;5035370;28;20936;-77
2022/06/16 08:33:13;;;;;;;4.60;1.70;;;;;;;-143.84;28.33;44927.19;5048503;28;20511;-77
2022/06/16 08:35:42;;;;;;;2.20;1.50;;;;;;;-143.84;28.90;44866.28;5047627;28;20437;-77
2022/06/16 08:38:09;;;;;;;3.57;1.77;;;;;;;-143.84;29.72;44891.03;5048638;28;20503;-77
2022/06/16 08:40:42;;;;;;;5.93;1.53;;;;;;;-143.84;28.98;44871.97;5048892;28;20474;-77
2022/06/16 08:43:23;;;;;;;5.37;1.47;;;;;;;-143.84;28.65;44902.44;5048470;28;20454;-77
2022/06/16 08:45:55;;;;;;;4.37;2.50;;;;;;;-143.84;30.77;44900.53;4943104;28;20539;-77
2022/06/16 08:48:33;;;;;;;4.90;1.83;;;;;;;-143.84;29.74;44889.13;4948238;28;21087;-77
2022/06/16 08:51:07;;;;;;;7.83;2.40;;;;;;;-143.84;30.69;44879.59;4947848;29;20489;-77
2022/06/16 08:54:00;;;;;;;3.03;1.60;;;;;;;-143.84;29.09;44868.19;4947708;28;20494;-78
2022/06/16 08:56:35;;;;;;;2.60;2.10;;;;;;;-143.84;29.96;44877.69;4947867;28;20450;-78
2022/06/16 08:59:10;;;;;;;3.60;1.80;;;;;;;-143.84;30.43;44883.41;4948213;29;20454;-76
2022/06/16 09:01:44;;;;;;;7.70;1.90;;;;;;;-143.84;29.26;44894.84;4948674;28;20469;-77
2022/06/16 09:04:15;;;;;;;8.43;2.13;;;;;;;-143.84;28.81;44883.41;4946446;28;20505;-77
2022/06/16 09:06:56;;;;;;;5.03;1.90;;;;;;;-143.84;31.55;44871.97;4946735;28;20520;-76
2022/06/16 09:12:31;;;;;;;4.40;1.57;;;;;;;-143.84;28.09;44906.25;4950449;29;21223;-77
2022/06/16 09:15:12;;;;;;;2.63;1.90;;;;;;;-143.84;27.59;44885.31;4948441;29;20461;-77
2022/06/16 09:17:52;;;;;;;1.97;1.43;;;;;;;-143.84;28.52;44917.69;4950095;29;20462;-77
2022/06/16 09:20:28;;;;;;;2.70;1.50;;;;;;;-143.84;28.84;44892.94;4950099;29;20453;-77
2022/06/16 09:23:18;;;;;;;3.20;1.53;;;;;;;-143.84;28.49;44896.75;4948019;29;20450;-76
2022/06/16 09:25:58;;;;;;;1.70;1.40;;;;;;;-143.84;27.80;44889.13;4950681;28;20462;-77
2022/06/16 09:28:32;;;;;;;2.40;1.00;;;;;;;-143.84;28.14;44932.91;4950350;29;20794;-76
2022/06/16 09:31:05;;;;;;;4.50;1.50;;;;;;;-143.84;29.37;44885.31;4948077;28;20458;-76
2022/06/16 09:33:38;;;;;;;2.70;1.30;;;;;;;-143.84;27.82;44923.41;4948665;28;20454;-77
2022/06/16 09:36:12;;;;;;;3.77;1.50;;;;;;;-143.84;30.23;44904.34;4948805;29;20515;-77
2022/06/16 09:38:45;;;;;;;2.70;1.10;;;;;;;-143.84;29.10;44923.41;4950031;29;20458;-77
2022/06/16 09:44:07;;;;;;;13.43;1.70;;;;;;;-143.84;29.66;44900.53;4950117;29;20438;-77
2022/06/16 09:46:41;;;;;;;8.90;1.90;;;;;;;-143.84;29.42;44915.78;4948717;28;20461;-77
2022/06/16 09:49:14;;;;;;;4.77;1.87;;;;;;;-143.84;28.27;44921.50;4949044;29;20519;-77
2022/06/16 09:51:48;;;;;;;3.53;2.10;;;;;;;-143.84;29.90;44915.78;4949633;28;20524;-76
2022/06/16 09:54:19;;;;;;;2.60;1.60;;;;;;;-143.84;30.55;44910.06;4947309;29;20489;-76
2022/06/16 09:56:52;;;;;;;4.93;1.77;;;;;;;-143.84;31.33;44902.44;4947481;29;20507;-77
2022/06/16 09:59:24;;;;;;;2.40;1.87;;;;;;;-143.84;30.39;44910.06;4947592;29;20458;-76
2022/06/16 10:01:59;;;;;;;3.47;1.70;;;;;;;-143.84;30.74;44932.91;4949764;29;20841;-76
2022/06/16 10:04:26;;;;;;;6.37;1.90;;;;;;;-143.84;31.22;44898.66;4948045;28;20461;-77
2022/06/16 10:07:01;;;;;;;5.20;1.83;;;;;;;-143.84;29.95;44906.25;4949863;28;20450;-77
2022/06/16 10:09:35;;;;;;;6.40;1.60;;;;;;;-143.84;30.55;44923.41;4949701;29;20454;-77
2022/06/16 10:12:14;;;;;;;6.20;2.00;;;;;;;-143.84;31.18;44934.81;4949879;29;20490;-76
2022/06/16 10:14:49;;;;;;;3.60;2.23;;;;;;;-143.84;32.11;44923.41;4949107;29;20458;-77
2022/06/16 10:17:21;;;;;;;2.90;2.00;;;;;;;-143.84;30.75;44900.53;4946505;29;20500;-77
2022/06/16 10:19:49;;;;;;;26.07;7.63;;;;;;;-143.84;31.33;44911.97;4946362;29;20466;-76
2022/06/16 10:22:19;;;;;;;16.00;7.13;;;;;;;-143.84;32.38;44908.16;4946377;28;20450;-73
2022/06/16 10:24:53;;;;;;;5.90;2.60;;;;;;;-143.84;30.58;44917.69;4946067;28;20952;-73
2022/06/16 10:27:22;;;;;;;2.53;1.60;;;;;;;-143.84;30.21;44915.78;4946360;29;20865;-73
2022/06/16 10:29:54;;;;;;;6.07;2.23;;;;;;;-143.84;31.64;44889.13;4949741;28;20515;-73
2022/06/16 10:32:39;;;;;;;5.30;2.30;;;;;;;-143.84;29.93;44898.66;4948907;29;20482;-73
2022/06/16 10:35:07;;;;;;;3.20;1.70;;;;;;;-143.84;31.20;44913.88;4948095;28;20455;-73
2022/06/16 10:37:41;;;;;;;2.07;1.80;;;;;;;-143.84;30.57;44910.06;4949285;29;20450;-73
2022/06/16 10:40:14;;;;;;;2.53;1.60;;;;;;;-143.84;29.94;44938.63;4949194;29;20454;-73
2022/06/16 10:42:44;;;;;;;2.70;2.07;;;;;;;-143.84;32.14;44923.41;4948753;29;20462;-73
2022/06/16 10:45:15;;;;;;;5.33;1.60;;;;;;;-143.84;31.12;44942.44;4949053;28;20481;-73
2022/06/16 10:47:50;;;;;;;26.40;4.20;;;;;;;-143.84;31.76;44927.19;4948494;29;20492;-72
2022/06/16 10:50:21;;;;;;;4.90;1.43;;;;;;;-143.84;31.78;44904.34;4948160;29;20823;-73
2022/06/16 10:52:53;;;;;;;3.50;1.20;;;;;;;-143.84;30.74;44944.34;4948196;29;21140;-73
2022/06/16 10:55:22;;;;;;;4.77;1.70;;;;;;;-143.84;32.43;44927.19;4948666;29;21003;-73
2022/06/16 10:58:00;;;;;;;1.43;1.20;;;;;;;-143.84;33.85;44917.69;4948235;29;20461;-73
2022/06/16 11:00:30;;;;;;;2.57;1.43;;;;;;;-143.84;31.79;44919.59;4946280;29;20453;-73
2022/06/16 11:03:02;;;;;;;2.40;1.60;;;;;;;-143.84;32.47;44940.53;4948746;29;20452;-73
2022/06/16 11:05:33;;;;;;;2.43;1.80;;;;;;;-143.84;32.75;44991.94;4946622;29;20467;-73
2022/06/16 11:08:09;;;;;;;2.43;1.70;;;;;;;-143.84;32.23;44921.50;4946484;29;20450;-73
2022/06/16 11:10:40;;;;;;;3.30;1.30;;;;;;;-143.84;31.80;44906.25;4947656;29;20461;-73
2022/06/16 11:13:14;;;;;;;1.30;1.10;;;;;;;-143.84;32.09;44915.78;4948392;29;20857;-73
2022/06/16 11:15:48;;;;;;;4.33;1.30;;;;;;;-143.84;33.29;44944.34;4948475;29;20454;-73
2022/06/16 11:18:20;;;;;;;2.33;1.57;;;;;;;-143.84;34.61;44953.88;4948654;28;20556;-73
2022/06/16 11:20:50;;;;;;;3.23;1.60;;;;;;;-143.84;34.88;44948.16;4946274;28;20818;-73
2022/06/16 11:23:27;;;;;;;4.23;1.33;;;;;;;-143.84;33.95;44950.06;4945622;29;20458;-73
2022/06/16 11:25:59;;;;;;;6.37;2.20;;;;;;;-143.84;33.91;44908.16;4946572;29;20542;-73
2022/06/16 11:28:28;;;;;;;9.17;1.93;;;;;;;-143.84;34.17;44900.53;4948157;29;20515;-73
2022/06/16 11:30:59;;;;;;;1.70;1.30;;;;;;;-143.84;31.48;44934.81;4948236;28;20446;-73
2022/06/16 11:36:39;;;;;;;3.00;1.50;;;;;;;-143.84;33.89;44940.53;4946583;28;20452;-73
2022/06/16 11:39:15;;;;;;;1.70;1.60;;;;;;;-143.84;33.60;44936.72;4949379;29;20470;-72
2022/06/16 11:41:47;;;;;;;2.90;1.50;;;;;;;-143.84;33.46;44919.59;4949172;28;20492;-72
2022/06/16 11:44:33;;;;;;;3.80;1.40;;;;;;;-143.84;31.61;44917.69;4948803;28;20813;-73
2022/06/16 11:47:10;;;;;;;3.73;1.20;;;;;;;-143.84;31.58;44925.31;4948816;28;21296;-73
2022/06/16 11:49:43;;;;;;;6.70;1.80;;;;;;;-143.84;33.28;44929.09;4948636;29;20446;-73
2022/06/16 11:52:21;;;;;;;4.80;1.90;;;;;;;-143.84;32.93;44951.97;4948418;28;20567;-73
2022/06/16 11:55:01;;;;;;;3.70;1.13;;;;;;;-143.84;32.63;44963.38;4949262;28;20439;-73
2022/06/16 11:57:42;;;;;;;4.33;1.50;;;;;;;-143.84;33.29;44938.63;4948326;28;20457;-72
2022/06/16 12:00:19;;;;;;;3.27;1.63;;;;;;;-143.84;31.92;44938.63;4946147;28;21003;-73